createdAt,value
2022-08-01T00:02:57.088Z,15.32
2022-08-01T00:07:04.485Z,15.28
2022-08-01T00:11:12.751Z,15.28
2022-08-01T00:15:17.948Z,15.19
2022-08-01T00:19:43.466Z,15.17
2022-08-01T00:23:50.209Z,15.12
2022-08-01T00:27:54.094Z,15.13
2022-08-01T00:31:56.581Z,15.14
2022-08-01T00:35:59.535Z,15.22
2022-08-01T00:40:04.143Z,15.24
2022-08-01T00:44:19.129Z,15.20
2022-08-01T00:48:21.984Z,15.14
2022-08-01T00:52:28.685Z,15.15
2022-08-01T00:56:31.736Z,15.07
2022-08-01T01:00:52.204Z,15.00
2022-08-01T01:04:56.226Z,15.07
2022-08-01T01:09:16.294Z,15.10
2022-08-01T01:13:30.931Z,15.12
2022-08-01T01:17:51.329Z,15.22
2022-08-01T01:22:28.289Z,15.26
2022-08-01T01:27:04.675Z,15.32
2022-08-01T01:31:10.973Z,15.39
2022-08-01T01:35:24.267Z,15.43
2022-08-01T01:39:33.470Z,15.36
2022-08-01T01:43:43.544Z,15.36
2022-08-01T01:47:49.573Z,15.39
2022-08-01T01:52:08.844Z,15.43
2022-08-01T01:56:16.247Z,15.48
2022-08-01T02:00:19.039Z,15.50
2022-08-01T02:04:25.419Z,15.52
2022-08-01T02:08:31.847Z,15.53
2022-08-01T02:12:38.622Z,15.46
2022-08-01T02:16:45.803Z,15.44
2022-08-01T02:20:50.769Z,15.50
2022-08-01T02:25:18.400Z,15.44
2022-08-01T02:29:31.136Z,15.33
2022-08-01T02:33:44.092Z,15.22
2022-08-01T02:37:48.079Z,15.18
2022-08-01T02:41:58.834Z,15.19
2022-08-01T02:46:03.466Z,15.18
2022-08-01T02:50:08.837Z,15.13
2022-08-01T02:54:12.113Z,15.13
2022-08-01T02:58:19.488Z,15.22
2022-08-01T03:02:24.137Z,15.24
2022-08-01T03:06:27.895Z,15.22
2022-08-01T03:10:32.159Z,15.20
2022-08-01T03:14:37.452Z,15.14
2022-08-01T03:18:42.953Z,15.12
2022-08-01T03:22:46.951Z,15.09
2022-08-01T03:26:50.763Z,15.14
2022-08-01T03:30:54.381Z,15.06
2022-08-01T03:34:57.022Z,15.00
2022-08-01T03:39:03.257Z,14.99
2022-08-01T03:43:12.221Z,14.98
2022-08-01T03:47:17.009Z,15.00
2022-08-01T03:51:22.082Z,15.05
2022-08-01T03:55:26.008Z,15.08
2022-08-01T03:59:29.534Z,15.14
2022-08-01T04:03:32.985Z,15.20
2022-08-01T04:07:55.836Z,15.29
2022-08-01T04:12:00.663Z,15.36
2022-08-01T04:16:03.032Z,15.33
2022-08-01T04:20:05.862Z,15.36
2022-08-01T04:24:17.524Z,15.36
2022-08-01T04:28:21.670Z,15.35
2022-08-01T04:32:26.259Z,15.34
2022-08-01T04:36:30.826Z,15.33
2022-08-01T04:40:36.467Z,15.36
2022-08-01T04:44:38.820Z,15.39
2022-08-01T04:48:42.015Z,15.38
2022-08-01T04:52:44.409Z,15.35
2022-08-01T04:56:46.940Z,15.33
2022-08-01T05:00:53.840Z,15.41
2022-08-01T05:04:56.204Z,15.50
2022-08-01T05:08:58.429Z,15.47
2022-08-01T05:13:03.251Z,15.47
2022-08-01T05:17:07.726Z,15.48
2022-08-01T05:21:10.080Z,15.48
2022-08-01T05:25:13.376Z,15.41
2022-08-01T05:29:23.035Z,15.44
2022-08-01T05:33:25.347Z,15.49
2022-08-01T05:37:27.711Z,15.59
2022-08-01T05:41:30.720Z,15.65
2022-08-01T05:45:33.193Z,15.62
2022-08-01T05:49:35.547Z,15.67
2022-08-01T05:53:37.844Z,15.78
2022-08-01T05:57:40.604Z,15.90
2022-08-01T06:01:44.894Z,16.00
2022-08-01T06:05:47.452Z,16.03
2022-08-01T06:09:49.775Z,16.04
2022-08-01T06:13:52.092Z,16.07
2022-08-01T06:17:54.331Z,16.06
2022-08-01T06:21:56.574Z,16.11
2022-08-01T06:25:59.194Z,16.25
2022-08-01T06:30:01.573Z,16.33
2022-08-01T06:34:03.900Z,16.46
2022-08-01T06:38:06.219Z,16.55
2022-08-01T06:42:08.891Z,16.61
2022-08-01T06:46:11.331Z,16.67
2022-08-01T06:50:15.305Z,16.77
2022-08-01T06:54:17.568Z,16.95
2022-08-01T06:58:19.750Z,16.93
2022-08-01T07:02:23.456Z,17.13
2022-08-01T07:06:26.447Z,17.35
2022-08-01T07:10:28.872Z,17.54
2022-08-01T07:14:31.178Z,17.93
2022-08-01T07:18:34.010Z,18.20
2022-08-01T07:22:37.561Z,18.45
2022-08-01T07:26:53.534Z,18.71
2022-08-01T07:30:57.088Z,18.97
2022-08-01T07:34:59.344Z,19.26
2022-08-01T07:39:02.768Z,19.17
2022-08-01T07:43:05.171Z,19.26
2022-08-01T07:47:07.642Z,19.30
2022-08-01T07:51:10.989Z,19.20
2022-08-01T07:55:16.473Z,19.11
2022-08-01T07:59:26.058Z,19.41
2022-08-01T08:03:28.747Z,19.68
2022-08-01T08:07:31.084Z,19.99
2022-08-01T08:11:33.479Z,20.06
2022-08-01T08:15:35.775Z,20.41
2022-08-01T08:19:39.779Z,20.81
2022-08-01T08:24:00.453Z,20.96
2022-08-01T08:28:02.748Z,21.01
2022-08-01T08:32:05.764Z,21.28
2022-08-01T08:36:09.000Z,21.57
2022-08-01T08:40:11.708Z,21.82
2022-08-01T08:44:15.019Z,21.87
2022-08-01T08:48:18.752Z,21.79
2022-08-01T08:52:31.428Z,22.00
2022-08-01T08:56:36.081Z,22.06
2022-08-01T09:00:40.286Z,22.25
2022-08-01T09:04:42.834Z,22.35
2022-08-01T09:08:45.134Z,22.64
2022-08-01T09:13:11.394Z,22.89
2022-08-01T09:17:13.972Z,23.06
2022-08-01T09:21:19.891Z,23.11
2022-08-01T09:25:22.327Z,22.94
2022-08-01T09:29:38.246Z,23.03
2022-08-01T09:33:59.031Z,23.21
2022-08-01T09:38:23.273Z,23.36
2022-08-01T09:42:28.907Z,23.36
2022-08-01T09:46:31.837Z,23.31
2022-08-01T09:50:46.480Z,23.33
2022-08-01T09:54:55.986Z,23.48
2022-08-01T09:59:02.152Z,23.53
2022-08-01T10:03:25.928Z,23.62
2022-08-01T10:07:43.873Z,23.73
2022-08-01T10:11:46.916Z,23.72
2022-08-01T10:15:50.364Z,23.73
2022-08-01T10:19:58.237Z,23.70
2022-08-01T10:24:04.400Z,24.11
2022-08-01T10:28:17.857Z,24.21
2022-08-01T10:32:24.153Z,24.28
2022-08-01T10:36:34.121Z,24.31
2022-08-01T10:40:44.496Z,24.19
2022-08-01T10:44:48.943Z,24.25
2022-08-01T10:49:08.128Z,24.38
2022-08-01T10:53:16.560Z,24.44
2022-08-01T10:57:27.561Z,24.52
2022-08-01T11:01:37.811Z,24.57
2022-08-01T11:05:44.423Z,24.41
2022-08-01T11:10:14.983Z,24.63
2022-08-01T11:14:26.176Z,24.71
2022-08-01T11:18:37.875Z,24.81
2022-08-01T11:23:13.279Z,24.89
2022-08-01T11:27:27.769Z,24.90
2022-08-01T11:31:37.508Z,25.07
2022-08-01T11:36:11.957Z,25.14
2022-08-01T11:40:29.102Z,25.02
2022-08-01T11:44:53.483Z,25.19
2022-08-01T11:49:30.386Z,25.25
2022-08-01T11:53:34.141Z,24.94
2022-08-01T11:57:41.985Z,24.86
2022-08-01T12:01:49.520Z,24.80
2022-08-01T12:05:52.301Z,24.89
2022-08-01T12:10:09.640Z,25.06
2022-08-01T12:14:19.930Z,25.15
2022-08-01T12:18:26.991Z,25.12
2022-08-01T12:22:29.624Z,25.32
2022-08-01T12:26:45.651Z,25.52
2022-08-01T12:30:50.494Z,25.63
2022-08-01T12:34:56.668Z,25.68
2022-08-01T12:39:04.655Z,25.59
2022-08-01T12:43:27.529Z,25.54
2022-08-01T12:47:43.149Z,25.58
2022-08-01T12:51:57.401Z,25.79
2022-08-01T12:56:06.822Z,25.74
2022-08-01T13:00:23.061Z,25.79
2022-08-01T13:05:01.791Z,25.87
2022-08-01T13:09:11.073Z,25.95
2022-08-01T13:13:22.155Z,25.97
2022-08-01T13:17:36.649Z,25.98
2022-08-01T13:21:53.138Z,26.16
2022-08-01T13:25:56.967Z,26.24
2022-08-01T13:30:18.772Z,26.06
2022-08-01T13:34:32.717Z,25.92
2022-08-01T13:38:53.272Z,26.15
2022-08-01T13:42:57.182Z,26.31
2022-08-01T13:46:59.498Z,26.12
2022-08-01T13:51:21.510Z,25.67
2022-08-01T13:55:25.214Z,25.52
2022-08-01T13:59:27.853Z,25.57
2022-08-01T14:03:33.474Z,25.87
2022-08-01T14:07:41.319Z,26.01
2022-08-01T14:11:47.963Z,26.16
2022-08-01T14:15:50.802Z,26.28
2022-08-01T14:19:53.563Z,26.41
2022-08-01T14:23:57.109Z,26.30
2022-08-01T14:27:59.569Z,25.94
2022-08-01T14:32:01.996Z,25.71
2022-08-01T14:36:29.187Z,25.64
2022-08-01T14:40:27.715Z,25.66
2022-08-01T14:44:33.114Z,25.81
2022-08-01T14:48:35.457Z,25.92
2022-08-01T14:52:39.804Z,26.09
2022-08-01T14:56:42.121Z,26.33
2022-08-01T15:00:44.470Z,26.44
2022-08-01T15:04:50.779Z,26.59
2022-08-01T15:08:53.136Z,26.72
2022-08-01T15:12:56.261Z,26.73
2022-08-01T15:17:01.140Z,26.36
2022-08-01T15:21:03.980Z,26.12
2022-08-01T15:25:06.554Z,26.14
2022-08-01T15:29:08.698Z,26.27
2022-08-01T15:33:11.886Z,26.22
2022-08-01T15:37:15.239Z,26.14
2022-08-01T15:41:17.465Z,25.99
2022-08-01T15:45:45.903Z,25.81
2022-08-01T15:49:44.412Z,25.80
2022-08-01T15:53:54.080Z,25.83
2022-08-01T15:57:56.406Z,25.93
2022-08-01T16:01:59.017Z,25.98
2022-08-01T16:06:01.321Z,25.82
2022-08-01T16:10:04.809Z,25.58
2022-08-01T16:14:13.866Z,25.42
2022-08-01T16:18:17.953Z,25.45
2022-08-01T16:22:20.116Z,25.60
2022-08-01T16:26:27.975Z,25.61
2022-08-01T16:30:30.962Z,25.67
2022-08-01T16:34:34.405Z,25.63
2022-08-01T16:38:37.875Z,25.58
2022-08-01T16:42:40.785Z,25.50
2022-08-01T16:46:44.259Z,25.42
2022-08-01T16:50:52.649Z,25.35
2022-08-01T16:54:57.745Z,25.12
2022-08-01T16:59:02.528Z,24.96
2022-08-01T17:03:17.715Z,24.82
2022-08-01T17:07:29.034Z,24.52
2022-08-01T17:11:31.344Z,24.37
2022-08-01T17:15:36.320Z,24.29
2022-08-01T17:19:39.839Z,24.23
2022-08-01T17:23:42.299Z,24.18
2022-08-01T17:27:44.966Z,24.10
2022-08-01T17:31:47.391Z,24.00
2022-08-01T17:35:49.633Z,23.94
2022-08-01T17:39:51.954Z,23.85
2022-08-01T17:44:14.426Z,23.68
2022-08-01T17:48:18.034Z,23.53
2022-08-01T17:52:21.293Z,23.42
2022-08-01T17:56:23.630Z,23.31
2022-08-01T18:00:25.824Z,23.21
2022-08-01T18:04:28.002Z,23.07
2022-08-01T18:08:30.223Z,22.90
2022-08-01T18:12:33.547Z,22.77
2022-08-01T18:16:36.302Z,22.62
2022-08-01T18:20:38.582Z,22.41
2022-08-01T18:24:40.719Z,22.26
2022-08-01T18:28:46.671Z,22.17
2022-08-01T18:32:49.105Z,22.08
2022-08-01T18:36:51.263Z,21.98
2022-08-01T18:40:53.767Z,21.88
2022-08-01T18:44:56.123Z,21.77
2022-08-01T18:48:58.310Z,21.71
2022-08-01T18:53:00.566Z,21.67
2022-08-01T18:57:02.866Z,21.50
2022-08-01T19:01:05.110Z,21.32
2022-08-01T19:05:08.472Z,21.25
2022-08-01T19:09:10.864Z,21.14
2022-08-01T19:13:12.999Z,21.11
2022-08-01T19:17:15.118Z,21.10
2022-08-01T19:21:17.413Z,21.05
2022-08-01T19:25:19.956Z,20.96
2022-08-01T19:29:35.302Z,20.85
2022-08-01T19:33:39.937Z,20.77
2022-08-01T19:37:47.473Z,20.78
2022-08-01T19:41:51.218Z,20.85
2022-08-01T19:45:54.671Z,20.78
2022-08-01T19:49:56.822Z,20.70
2022-08-01T19:54:03.015Z,20.62
2022-08-01T20:02:29.634Z,20.63
2022-08-01T20:06:33.207Z,20.64
2022-08-01T20:10:37.756Z,20.60
2022-08-01T20:14:43.000Z,20.53
2022-08-01T20:18:45.192Z,20.51
2022-08-01T20:22:49.343Z,20.54
2022-08-01T20:26:54.590Z,20.52
2022-08-01T20:31:04.995Z,20.45
2022-08-01T20:35:08.839Z,20.39
2022-08-01T20:39:13.325Z,20.27
2022-08-01T20:43:22.223Z,20.07
2022-08-01T20:47:25.433Z,20.07
2022-08-01T20:51:28.660Z,20.14
2022-08-01T20:55:43.347Z,20.21
2022-08-01T20:59:58.588Z,20.19
2022-08-01T21:04:25.047Z,20.15
2022-08-01T21:08:40.598Z,20.14
2022-08-01T21:12:58.788Z,20.17
2022-08-01T21:17:09.125Z,20.16
2022-08-01T21:21:16.745Z,20.16
2022-08-01T21:25:25.815Z,20.10
2022-08-01T21:29:28.562Z,20.04
2022-08-01T21:33:30.738Z,20.01
2022-08-01T21:37:35.959Z,20.00
2022-08-01T21:41:56.477Z,19.95
2022-08-01T21:46:01.495Z,19.95
2022-08-01T21:50:04.200Z,19.84
2022-08-01T21:54:19.590Z,19.80
2022-08-01T21:58:43.734Z,19.84
2022-08-01T22:02:53.914Z,19.89
2022-08-01T22:06:57.851Z,19.93
2022-08-01T22:11:07.629Z,19.95
2022-08-01T22:15:11.097Z,19.98
2022-08-01T22:19:32.443Z,20.00
2022-08-01T22:23:38.606Z,20.02
2022-08-01T22:28:09.343Z,20.02
2022-08-01T22:32:04.175Z,20.03
2022-08-01T22:36:07.229Z,19.99
2022-08-01T22:40:14.519Z,19.88
2022-08-01T22:44:25.623Z,19.79
2022-08-01T22:49:03.036Z,19.73
2022-08-01T22:53:36.549Z,19.75
2022-08-01T22:57:54.235Z,19.80
2022-08-01T23:02:00.618Z,19.87
2022-08-01T23:06:10.194Z,19.93
2022-08-01T23:10:12.468Z,19.93
2022-08-01T23:14:15.475Z,19.94
2022-08-01T23:18:19.869Z,19.92
2022-08-01T23:22:23.503Z,19.85
2022-08-01T23:26:28.933Z,19.85
2022-08-01T23:30:32.649Z,19.83
2022-08-01T23:34:35.222Z,19.86
2022-08-01T23:38:37.466Z,19.83
2022-08-01T23:42:39.655Z,19.88
2022-08-01T23:46:41.944Z,19.79
2022-08-01T23:50:44.213Z,19.63
2022-08-01T23:54:46.566Z,19.62
2022-08-01T23:58:51.344Z,19.60
